sensor_id;sensor_type;location;lat;lon;timestamp;temperature;humidity
20035;DHT22;10178;48.034;9.800;2022-07-23T00:00:32;21.00;99.90
20035;DHT22;10178;48.034;9.800;2022-07-23T00:02:57;20.80;99.90
20035;DHT22;10178;48.034;9.800;2022-07-23T00:05:23;20.40;99.90
20035;DHT22;10178;48.034;9.800;2022-07-23T00:07:48;20.20;99.90
20035;DHT22;10178;48.034;9.800;2022-07-23T00:10:14;20.10;99.90
20035;DHT22;10178;48.034;9.800;2022-07-23T00:12:40;20.20;99.90
20035;DHT22;10178;48.034;9.800;2022-07-23T00:15:06;20.30;99.90
20035;DHT22;10178;48.034;9.800;2022-07-23T00:17:32;21.20;99.90
20035;DHT22;10178;48.034;9.800;2022-07-23T00:19:58;21.20;99.90
20035;DHT22;10178;48.034;9.800;2022-07-23T00:22:23;21.30;99.90
20035;DHT22;10178;48.034;9.800;2022-07-23T00:24:49;21.90;99.90
20035;DHT22;10178;48.034;9.800;2022-07-23T00:27:15;23.00;99.90
20035;DHT22;10178;48.034;9.800;2022-07-23T00:29:41;23.90;99.90
20035;DHT22;10178;48.034;9.800;2022-07-23T00:32:06;23.40;99.90
20035;DHT22;10178;48.034;9.800;2022-07-23T00:34:32;24.10;99.90
20035;DHT22;10178;48.034;9.800;2022-07-23T00:36:58;24.70;99.90
20035;DHT22;10178;48.034;9.800;2022-07-23T00:39:23;24.90;99.90
20035;DHT22;10178;48.034;9.800;2022-07-23T00:41:50;25.20;99.90
20035;DHT22;10178;48.034;9.800;2022-07-23T00:44:22;24.80;99.90
20035;DHT22;10178;48.034;9.800;2022-07-23T00:46:53;22.70;99.90
20035;DHT22;10178;48.034;9.800;2022-07-23T00:49:20;23.00;99.90
20035;DHT22;10178;48.034;9.800;2022-07-23T00:51:47;23.90;99.90
20035;DHT22;10178;48.034;9.800;2022-07-23T00:54:13;24.40;99.90
20035;DHT22;10178;48.034;9.800;2022-07-23T00:56:39;24.00;99.90
20035;DHT22;10178;48.034;9.800;2022-07-23T00:59:06;24.40;99.90
20035;DHT22;10178;48.034;9.800;2022-07-23T01:01:32;23.50;99.90
20035;DHT22;10178;48.034;9.800;2022-07-23T01:03:58;22.70;99.90
20035;DHT22;10178;48.034;9.800;2022-07-23T01:06:24;22.40;99.90
20035;DHT22;10178;48.034;9.800;2022-07-23T01:08:49;22.80;99.90
20035;DHT22;10178;48.034;9.800;2022-07-23T01:11:16;23.60;99.90
20035;DHT22;10178;48.034;9.800;2022-07-23T01:13:45;24.30;99.90
20035;DHT22;10178;48.034;9.800;2022-07-23T01:16:11;24.60;99.90
20035;DHT22;10178;48.034;9.800;2022-07-23T01:18:37;24.70;99.90
20035;DHT22;10178;48.034;9.800;2022-07-23T01:21:02;24.00;99.90
20035;DHT22;10178;48.034;9.800;2022-07-23T01:23:28;22.50;99.90
20035;DHT22;10178;48.034;9.800;2022-07-23T01:25:54;21.40;99.90
20035;DHT22;10178;48.034;9.800;2022-07-23T01:28:21;20.40;99.90
20035;DHT22;10178;48.034;9.800;2022-07-23T01:30:47;19.70;99.90
20035;DHT22;10178;48.034;9.800;2022-07-23T01:33:14;20.00;99.90
20035;DHT22;10178;48.034;9.800;2022-07-23T01:35:39;19.30;99.90
20035;DHT22;10178;48.034;9.800;2022-07-23T01:38:05;19.10;99.90
20035;DHT22;10178;48.034;9.800;2022-07-23T01:40:31;19.00;99.90
20035;DHT22;10178;48.034;9.800;2022-07-23T01:42:57;18.90;99.90
20035;DHT22;10178;48.034;9.800;2022-07-23T01:45:22;18.70;99.90
20035;DHT22;10178;48.034;9.800;2022-07-23T01:47:48;18.60;99.90
20035;DHT22;10178;48.034;9.800;2022-07-23T01:50:14;18.70;99.90
20035;DHT22;10178;48.034;9.800;2022-07-23T01:52:40;19.80;99.90
20035;DHT22;10178;48.034;9.800;2022-07-23T01:55:06;20.90;99.90
20035;DHT22;10178;48.034;9.800;2022-07-23T01:57:32;22.10;99.90
20035;DHT22;10178;48.034;9.800;2022-07-23T01:59:58;23.10;99.90
20035;DHT22;10178;48.034;9.800;2022-07-23T02:02:23;23.70;99.90
20035;DHT22;10178;48.034;9.800;2022-07-23T02:04:49;24.00;99.90
20035;DHT22;10178;48.034;9.800;2022-07-23T02:07:15;24.20;99.90
20035;DHT22;10178;48.034;9.800;2022-07-23T02:09:41;24.30;99.90
20035;DHT22;10178;48.034;9.800;2022-07-23T02:12:07;24.20;99.90
20035;DHT22;10178;48.034;9.800;2022-07-23T02:14:33;24.50;99.90
20035;DHT22;10178;48.034;9.800;2022-07-23T02:16:59;24.60;99.90
20035;DHT22;10178;48.034;9.800;2022-07-23T02:19:25;24.70;99.90
20035;DHT22;10178;48.034;9.800;2022-07-23T02:21:50;24.00;99.90
20035;DHT22;10178;48.034;9.800;2022-07-23T02:24:16;22.30;99.90
20035;DHT22;10178;48.034;9.800;2022-07-23T02:26:42;21.40;99.90
20035;DHT22;10178;48.034;9.800;2022-07-23T02:29:08;20.70;99.90
20035;DHT22;10178;48.034;9.800;2022-07-23T02:31:34;19.70;99.90
20035;DHT22;10178;48.034;9.800;2022-07-23T02:33:59;19.20;99.90
20035;DHT22;10178;48.034;9.800;2022-07-23T02:36:26;18.80;99.90
20035;DHT22;10178;48.034;9.800;2022-07-23T02:38:52;18.80;99.90
20035;DHT22;10178;48.034;9.800;2022-07-23T02:41:17;18.70;99.90
20035;DHT22;10178;48.034;9.800;2022-07-23T02:43:43;18.70;99.90
20035;DHT22;10178;48.034;9.800;2022-07-23T02:46:08;18.70;99.90
20035;DHT22;10178;48.034;9.800;2022-07-23T02:48:34;18.80;99.90
20035;DHT22;10178;48.034;9.800;2022-07-23T02:51:00;18.80;99.90
20035;DHT22;10178;48.034;9.800;2022-07-23T02:53:25;19.00;99.90
20035;DHT22;10178;48.034;9.800;2022-07-23T02:55:51;19.10;99.90
20035;DHT22;10178;48.034;9.800;2022-07-23T02:58:17;19.90;99.90
20035;DHT22;10178;48.034;9.800;2022-07-23T03:00:43;21.00;99.90
20035;DHT22;10178;48.034;9.800;2022-07-23T03:03:08;21.80;99.90
20035;DHT22;10178;48.034;9.800;2022-07-23T03:05:34;21.70;99.90
20035;DHT22;10178;48.034;9.800;2022-07-23T03:08:00;20.80;99.90
20035;DHT22;10178;48.034;9.800;2022-07-23T03:10:26;20.40;99.90
20035;DHT22;10178;48.034;9.800;2022-07-23T03:12:52;20.90;99.90
20035;DHT22;10178;48.034;9.800;2022-07-23T03:15:17;21.90;99.90
20035;DHT22;10178;48.034;9.800;2022-07-23T03:17:43;22.70;99.90
20035;DHT22;10178;48.034;9.800;2022-07-23T03:20:09;23.20;99.90
20035;DHT22;10178;48.034;9.800;2022-07-23T03:22:35;23.50;99.90
20035;DHT22;10178;48.034;9.800;2022-07-23T03:25:00;23.60;99.90
20035;DHT22;10178;48.034;9.800;2022-07-23T03:27:28;22.20;99.90
20035;DHT22;10178;48.034;9.800;2022-07-23T03:29:56;20.80;99.90
20035;DHT22;10178;48.034;9.800;2022-07-23T03:32:23;20.00;99.90
20035;DHT22;10178;48.034;9.800;2022-07-23T03:34:49;19.60;99.90
20035;DHT22;10178;48.034;9.800;2022-07-23T03:37:15;19.70;99.90
20035;DHT22;10178;48.034;9.800;2022-07-23T03:39:41;20.40;99.90
20035;DHT22;10178;48.034;9.800;2022-07-23T03:42:07;21.50;99.90
20035;DHT22;10178;48.034;9.800;2022-07-23T03:44:33;22.20;99.90
20035;DHT22;10178;48.034;9.800;2022-07-23T03:46:58;22.50;99.90
20035;DHT22;10178;48.034;9.800;2022-07-23T03:49:24;22.60;99.90
20035;DHT22;10178;48.034;9.800;2022-07-23T03:51:50;22.50;99.90
20035;DHT22;10178;48.034;9.800;2022-07-23T03:54:16;22.40;99.90
20035;DHT22;10178;48.034;9.800;2022-07-23T03:56:41;20.70;99.90
20035;DHT22;10178;48.034;9.800;2022-07-23T03:59:08;20.10;99.90
20035;DHT22;10178;48.034;9.800;2022-07-23T04:01:34;19.30;99.90
20035;DHT22;10178;48.034;9.800;2022-07-23T04:04:00;18.70;99.90
20035;DHT22;10178;48.034;9.800;2022-07-23T04:06:26;18.30;99.90
20035;DHT22;10178;48.034;9.800;2022-07-23T04:08:51;18.30;99.90
20035;DHT22;10178;48.034;9.800;2022-07-23T04:11:17;18.70;99.90
20035;DHT22;10178;48.034;9.800;2022-07-23T04:13:43;18.70;99.90
20035;DHT22;10178;48.034;9.800;2022-07-23T04:16:08;19.00;99.90
20035;DHT22;10178;48.034;9.800;2022-07-23T04:18:34;19.70;99.90
20035;DHT22;10178;48.034;9.800;2022-07-23T04:21:00;20.60;99.90
20035;DHT22;10178;48.034;9.800;2022-07-23T04:23:25;20.40;99.90
20035;DHT22;10178;48.034;9.800;2022-07-23T04:25:51;21.20;99.90
20035;DHT22;10178;48.034;9.800;2022-07-23T04:28:17;21.60;99.90
20035;DHT22;10178;48.034;9.800;2022-07-23T04:30:42;22.10;99.90
20035;DHT22;10178;48.034;9.800;2022-07-23T04:33:08;22.60;99.90
20035;DHT22;10178;48.034;9.800;2022-07-23T04:35:34;23.00;99.90
20035;DHT22;10178;48.034;9.800;2022-07-23T04:38:00;23.10;99.90
20035;DHT22;10178;48.034;9.800;2022-07-23T04:40:27;23.20;99.90
20035;DHT22;10178;48.034;9.800;2022-07-23T04:42:52;23.10;99.90
20035;DHT22;10178;48.034;9.800;2022-07-23T04:45:18;22.80;99.90
20035;DHT22;10178;48.034;9.800;2022-07-23T04:47:44;22.50;99.90
20035;DHT22;10178;48.034;9.800;2022-07-23T04:50:09;21.30;99.90
20035;DHT22;10178;48.034;9.800;2022-07-23T04:52:35;19.80;99.90
20035;DHT22;10178;48.034;9.800;2022-07-23T04:55:01;18.80;99.90
20035;DHT22;10178;48.034;9.800;2022-07-23T04:57:27;18.10;99.90
20035;DHT22;10178;48.034;9.800;2022-07-23T04:59:52;17.90;99.90
20035;DHT22;10178;48.034;9.800;2022-07-23T05:02:18;18.70;99.90
20035;DHT22;10178;48.034;9.800;2022-07-23T05:04:44;18.20;99.90
20035;DHT22;10178;48.034;9.800;2022-07-23T05:07:09;18.00;99.90
20035;DHT22;10178;48.034;9.800;2022-07-23T05:09:35;17.80;99.90
20035;DHT22;10178;48.034;9.800;2022-07-23T05:12:01;17.90;99.90
20035;DHT22;10178;48.034;9.800;2022-07-23T05:14:26;18.20;99.90
20035;DHT22;10178;48.034;9.800;2022-07-23T05:16:53;18.80;99.90
20035;DHT22;10178;48.034;9.800;2022-07-23T05:19:20;20.00;99.90
20035;DHT22;10178;48.034;9.800;2022-07-23T05:21:45;20.40;99.90
20035;DHT22;10178;48.034;9.800;2022-07-23T05:24:11;19.80;99.90
20035;DHT22;10178;48.034;9.800;2022-07-23T05:26:37;20.50;99.90
20035;DHT22;10178;48.034;9.800;2022-07-23T05:29:02;21.30;99.90
20035;DHT22;10178;48.034;9.800;2022-07-23T05:31:28;21.70;99.90
20035;DHT22;10178;48.034;9.800;2022-07-23T05:33:54;20.70;99.90
20035;DHT22;10178;48.034;9.800;2022-07-23T05:36:19;20.20;99.90
20035;DHT22;10178;48.034;9.800;2022-07-23T05:38:45;21.00;99.90
20035;DHT22;10178;48.034;9.800;2022-07-23T05:41:11;21.60;99.90
20035;DHT22;10178;48.034;9.800;2022-07-23T05:43:36;21.80;99.90
20035;DHT22;10178;48.034;9.800;2022-07-23T05:46:02;22.00;99.90
20035;DHT22;10178;48.034;9.800;2022-07-23T05:48:28;22.40;99.90
20035;DHT22;10178;48.034;9.800;2022-07-23T05:50:53;22.70;99.90
20035;DHT22;10178;48.034;9.800;2022-07-23T05:53:19;22.80;99.90
20035;DHT22;10178;48.034;9.800;2022-07-23T05:55:45;22.10;99.90
20035;DHT22;10178;48.034;9.800;2022-07-23T05:58:10;21.20;99.90
20035;DHT22;10178;48.034;9.800;2022-07-23T06:00:36;19.80;99.90
20035;DHT22;10178;48.034;9.800;2022-07-23T06:03:01;18.70;99.90
20035;DHT22;10178;48.034;9.800;2022-07-23T06:05:27;18.30;99.90
20035;DHT22;10178;48.034;9.800;2022-07-23T06:07:53;18.40;99.90
20035;DHT22;10178;48.034;9.800;2022-07-23T06:10:19;18.50;99.90
20035;DHT22;10178;48.034;9.800;2022-07-23T06:12:45;18.80;99.90
20035;DHT22;10178;48.034;9.800;2022-07-23T06:15:11;19.80;99.90
20035;DHT22;10178;48.034;9.800;2022-07-23T06:17:37;20.30;99.90
20035;DHT22;10178;48.034;9.800;2022-07-23T06:20:09;20.40;99.90
20035;DHT22;10178;48.034;9.800;2022-07-23T06:22:35;19.90;99.90
20035;DHT22;10178;48.034;9.800;2022-07-23T06:25:01;20.50;99.90
20035;DHT22;10178;48.034;9.800;2022-07-23T06:27:27;20.90;99.90
20035;DHT22;10178;48.034;9.800;2022-07-23T06:29:53;19.90;99.90
20035;DHT22;10178;48.034;9.800;2022-07-23T06:32:18;19.20;99.90
20035;DHT22;10178;48.034;9.800;2022-07-23T06:34:44;18.60;99.90
20035;DHT22;10178;48.034;9.800;2022-07-23T06:37:10;18.30;99.90
20035;DHT22;10178;48.034;9.800;2022-07-23T06:39:35;18.50;99.90
20035;DHT22;10178;48.034;9.800;2022-07-23T06:42:01;18.50;99.90
20035;DHT22;10178;48.034;9.800;2022-07-23T06:44:27;18.50;99.90
20035;DHT22;10178;48.034;9.800;2022-07-23T06:46:52;18.40;99.90
20035;DHT22;10178;48.034;9.800;2022-07-23T06:49:18;18.60;99.90
20035;DHT22;10178;48.034;9.800;2022-07-23T06:51:44;19.60;99.90
20035;DHT22;10178;48.034;9.800;2022-07-23T06:54:09;20.70;99.90
20035;DHT22;10178;48.034;9.800;2022-07-23T06:56:35;20.90;99.90
20035;DHT22;10178;48.034;9.800;2022-07-23T06:59:01;21.20;99.90
20035;DHT22;10178;48.034;9.800;2022-07-23T07:01:26;21.40;99.90
20035;DHT22;10178;48.034;9.800;2022-07-23T07:03:52;21.70;99.90
20035;DHT22;10178;48.034;9.800;2022-07-23T07:06:18;21.80;99.90
20035;DHT22;10178;48.034;9.800;2022-07-23T07:08:44;22.10;99.90
20035;DHT22;10178;48.034;9.800;2022-07-23T07:11:10;22.60;99.90
20035;DHT22;10178;48.034;9.800;2022-07-23T07:13:36;23.00;99.90
20035;DHT22;10178;48.034;9.800;2022-07-23T07:16:03;23.40;99.90
20035;DHT22;10178;48.034;9.800;2022-07-23T07:18:28;23.60;99.90
20035;DHT22;10178;48.034;9.800;2022-07-23T07:20:54;23.10;99.90
20035;DHT22;10178;48.034;9.800;2022-07-23T07:23:20;22.70;99.90
20035;DHT22;10178;48.034;9.800;2022-07-23T07:25:46;22.80;99.90
20035;DHT22;10178;48.034;9.800;2022-07-23T07:28:12;23.00;99.90
20035;DHT22;10178;48.034;9.800;2022-07-23T07:30:38;23.20;99.90
20035;DHT22;10178;48.034;9.800;2022-07-23T07:33:03;23.40;99.90
20035;DHT22;10178;48.034;9.800;2022-07-23T07:35:29;23.50;99.90
20035;DHT22;10178;48.034;9.800;2022-07-23T07:37:56;23.80;99.90
20035;DHT22;10178;48.034;9.800;2022-07-23T07:40:22;23.80;99.90
20035;DHT22;10178;48.034;9.800;2022-07-23T07:42:52;23.70;99.90
20035;DHT22;10178;48.034;9.800;2022-07-23T07:45:21;23.60;99.90
20035;DHT22;10178;48.034;9.800;2022-07-23T07:47:47;23.30;99.90
20035;DHT22;10178;48.034;9.800;2022-07-23T07:50:13;23.20;99.90
20035;DHT22;10178;48.034;9.800;2022-07-23T07:52:39;22.80;99.90
20035;DHT22;10178;48.034;9.800;2022-07-23T07:55:06;23.00;99.90
20035;DHT22;10178;48.034;9.800;2022-07-23T07:57:32;22.80;99.90
20035;DHT22;10178;48.034;9.800;2022-07-23T07:59:58;22.30;99.90
20035;DHT22;10178;48.034;9.800;2022-07-23T08:02:24;22.00;99.90
20035;DHT22;10178;48.034;9.800;2022-07-23T08:04:49;21.70;99.90
20035;DHT22;10178;48.034;9.800;2022-07-23T08:07:15;21.70;99.90
20035;DHT22;10178;48.034;9.800;2022-07-23T08:09:41;21.70;99.90
20035;DHT22;10178;48.034;9.800;2022-07-23T08:12:07;21.50;99.90
20035;DHT22;10178;48.034;9.800;2022-07-23T08:14:33;21.60;99.90
20035;DHT22;10178;48.034;9.800;2022-07-23T08:16:59;21.50;99.90
20035;DHT22;10178;48.034;9.800;2022-07-23T08:19:24;21.40;99.90
20035;DHT22;10178;48.034;9.800;2022-07-23T08:21:50;21.80;99.90
20035;DHT22;10178;48.034;9.800;2022-07-23T08:24:16;22.00;99.90
20035;DHT22;10178;48.034;9.800;2022-07-23T08:26:41;22.40;99.90
20035;DHT22;10178;48.034;9.800;2022-07-23T08:29:07;22.50;99.90
20035;DHT22;10178;48.034;9.800;2022-07-23T08:31:33;22.80;99.90
20035;DHT22;10178;48.034;9.800;2022-07-23T08:33:59;22.90;99.90
20035;DHT22;10178;48.034;9.800;2022-07-23T08:36:25;22.90;99.90
20035;DHT22;10178;48.034;9.800;2022-07-23T08:38:53;22.90;99.90
20035;DHT22;10178;48.034;9.800;2022-07-23T08:41:20;22.90;99.90
20035;DHT22;10178;48.034;9.800;2022-07-23T08:43:46;23.10;99.90
20035;DHT22;10178;48.034;9.800;2022-07-23T08:46:13;23.20;99.90
20035;DHT22;10178;48.034;9.800;2022-07-23T08:48:39;23.30;99.90
20035;DHT22;10178;48.034;9.800;2022-07-23T08:51:05;23.40;99.90
20035;DHT22;10178;48.034;9.800;2022-07-23T08:53:33;23.00;99.90
20035;DHT22;10178;48.034;9.800;2022-07-23T08:56:00;23.00;99.90
20035;DHT22;10178;48.034;9.800;2022-07-23T08:58:30;22.90;99.90
20035;DHT22;10178;48.034;9.800;2022-07-23T09:00:57;22.90;99.90
20035;DHT22;10178;48.034;9.800;2022-07-23T09:03:30;22.90;99.90
20035;DHT22;10178;48.034;9.800;2022-07-23T09:05:58;23.10;99.90
20035;DHT22;10178;48.034;9.800;2022-07-23T09:11:04;22.30;99.90
20035;DHT22;10178;48.034;9.800;2022-07-23T09:16:26;23.00;99.90
20035;DHT22;10178;48.034;9.800;2022-07-23T09:23:56;23.50;99.90
20035;DHT22;10178;48.034;9.800;2022-07-23T09:26:47;24.00;99.90
20035;DHT22;10178;48.034;9.800;2022-07-23T09:29:17;24.00;99.90
20035;DHT22;10178;48.034;9.800;2022-07-23T09:31:49;23.50;99.90
20035;DHT22;10178;48.034;9.800;2022-07-23T09:34:27;23.10;99.90
20035;DHT22;10178;48.034;9.800;2022-07-23T09:36:55;22.70;99.90
20035;DHT22;10178;48.034;9.800;2022-07-23T09:39:30;23.00;99.90
20035;DHT22;10178;48.034;9.800;2022-07-23T09:41:57;23.30;99.90
20035;DHT22;10178;48.034;9.800;2022-07-23T09:44:23;23.00;99.90
20035;DHT22;10178;48.034;9.800;2022-07-23T09:46:58;22.60;99.90
20035;DHT22;10178;48.034;9.800;2022-07-23T09:49:23;23.00;99.90
20035;DHT22;10178;48.034;9.800;2022-07-23T09:51:58;23.70;99.90
20035;DHT22;10178;48.034;9.800;2022-07-23T09:54:39;24.20;99.90
20035;DHT22;10178;48.034;9.800;2022-07-23T09:57:07;24.10;99.90
20035;DHT22;10178;48.034;9.800;2022-07-23T09:59:37;24.20;99.90
20035;DHT22;10178;48.034;9.800;2022-07-23T10:02:04;24.50;99.90
20035;DHT22;10178;48.034;9.800;2022-07-23T10:04:31;24.60;99.90
20035;DHT22;10178;48.034;9.800;2022-07-23T10:06:59;24.60;99.90
20035;DHT22;10178;48.034;9.800;2022-07-23T10:09:33;24.60;99.90
20035;DHT22;10178;48.034;9.800;2022-07-23T10:12:04;24.50;99.90
20035;DHT22;10178;48.034;9.800;2022-07-23T10:14:49;24.50;99.90
20035;DHT22;10178;48.034;9.800;2022-07-23T10:17:15;24.60;99.90
20035;DHT22;10178;48.034;9.800;2022-07-23T10:19:42;24.70;99.90
20035;DHT22;10178;48.034;9.800;2022-07-23T10:22:29;24.80;99.90
20035;DHT22;10178;48.034;9.800;2022-07-23T10:25:27;24.90;99.90
20035;DHT22;10178;48.034;9.800;2022-07-23T10:38:35;24.20;99.90
20035;DHT22;10178;48.034;9.800;2022-07-23T10:41:04;24.00;99.90
20035;DHT22;10178;48.034;9.800;2022-07-23T10:43:31;23.50;99.90
20035;DHT22;10178;48.034;9.800;2022-07-23T10:48:45;23.20;99.90
20035;DHT22;10178;48.034;9.800;2022-07-23T10:51:11;23.20;99.90
20035;DHT22;10178;48.034;9.800;2022-07-23T10:59:03;23.80;99.90
20035;DHT22;10178;48.034;9.800;2022-07-23T11:01:37;23.90;99.90
20035;DHT22;10178;48.034;9.800;2022-07-23T11:04:04;23.50;99.90
20035;DHT22;10178;48.034;9.800;2022-07-23T11:09:31;23.50;99.90
20035;DHT22;10178;48.034;9.800;2022-07-23T11:15:13;22.90;99.90
20035;DHT22;10178;48.034;9.800;2022-07-23T11:17:59;22.90;99.90
20035;DHT22;10178;48.034;9.800;2022-07-23T11:20:25;23.00;99.90
20035;DHT22;10178;48.034;9.800;2022-07-23T11:22:56;23.20;99.90
20035;DHT22;10178;48.034;9.800;2022-07-23T11:27:49;23.00;99.90
20035;DHT22;10178;48.034;9.800;2022-07-23T11:33:38;23.20;99.90
20035;DHT22;10178;48.034;9.800;2022-07-23T11:35:42;23.40;99.90
20035;DHT22;10178;48.034;9.800;2022-07-23T11:40:38;24.30;99.90
20035;DHT22;10178;48.034;9.800;2022-07-23T11:43:06;24.60;99.90
20035;DHT22;10178;48.034;9.800;2022-07-23T11:45:35;24.70;99.90
20035;DHT22;10178;48.034;9.800;2022-07-23T11:48:02;24.60;99.90
20035;DHT22;10178;48.034;9.800;2022-07-23T11:50:28;24.70;99.90
20035;DHT22;10178;48.034;9.800;2022-07-23T11:52:54;24.80;99.90
20035;DHT22;10178;48.034;9.800;2022-07-23T11:55:21;24.60;99.90
20035;DHT22;10178;48.034;9.800;2022-07-23T11:57:47;24.80;99.90
20035;DHT22;10178;48.034;9.800;2022-07-23T12:00:17;24.80;99.90
20035;DHT22;10178;48.034;9.800;2022-07-23T12:02:49;24.60;99.90
20035;DHT22;10178;48.034;9.800;2022-07-23T12:05:19;24.50;99.90
20035;DHT22;10178;48.034;9.800;2022-07-23T12:07:48;24.10;99.90
20035;DHT22;10178;48.034;9.800;2022-07-23T12:10:41;23.60;99.90
20035;DHT22;10178;48.034;9.800;2022-07-23T12:13:12;23.50;99.90
20035;DHT22;10178;48.034;9.800;2022-07-23T12:15:40;23.50;99.90
20035;DHT22;10178;48.034;9.800;2022-07-23T12:18:08;23.40;99.90
20035;DHT22;10178;48.034;9.800;2022-07-23T12:20:36;23.80;99.90
20035;DHT22;10178;48.034;9.800;2022-07-23T12:23:05;23.90;99.90
20035;DHT22;10178;48.034;9.800;2022-07-23T12:25:33;23.80;99.90
20035;DHT22;10178;48.034;9.800;2022-07-23T12:33:37;23.50;99.90
20035;DHT22;10178;48.034;9.800;2022-07-23T12:36:03;23.30;99.90
20035;DHT22;10178;48.034;9.800;2022-07-23T12:38:49;23.50;99.90
20035;DHT22;10178;48.034;9.800;2022-07-23T12:41:15;23.60;99.90
20035;DHT22;10178;48.034;9.800;2022-07-23T12:43:43;23.70;99.90
20035;DHT22;10178;48.034;9.800;2022-07-23T12:46:10;24.10;99.90
20035;DHT22;10178;48.034;9.800;2022-07-23T12:48:39;24.50;99.90
20035;DHT22;10178;48.034;9.800;2022-07-23T12:51:21;24.70;99.90
20035;DHT22;10178;48.034;9.800;2022-07-23T12:53:55;24.40;99.90
20035;DHT22;10178;48.034;9.800;2022-07-23T12:56:30;24.50;99.90
20035;DHT22;10178;48.034;9.800;2022-07-23T12:59:08;24.40;99.90
20035;DHT22;10178;48.034;9.800;2022-07-23T13:01:53;24.20;99.90
20035;DHT22;10178;48.034;9.800;2022-07-23T13:04:20;24.10;99.90
20035;DHT22;10178;48.034;9.800;2022-07-23T13:06:52;24.10;99.90
20035;DHT22;10178;48.034;9.800;2022-07-23T13:09:24;24.40;99.90
20035;DHT22;10178;48.034;9.800;2022-07-23T13:11:50;24.60;99.90
20035;DHT22;10178;48.034;9.800;2022-07-23T13:14:18;24.80;99.90
20035;DHT22;10178;48.034;9.800;2022-07-23T13:16:44;24.90;99.90
20035;DHT22;10178;48.034;9.800;2022-07-23T13:19:10;24.80;99.90
20035;DHT22;10178;48.034;9.800;2022-07-23T13:21:36;24.80;99.90
20035;DHT22;10178;48.034;9.800;2022-07-23T13:24:01;24.90;99.90
20035;DHT22;10178;48.034;9.800;2022-07-23T13:26:27;24.60;99.90
20035;DHT22;10178;48.034;9.800;2022-07-23T13:28:53;24.50;99.90
20035;DHT22;10178;48.034;9.800;2022-07-23T13:31:20;24.20;99.90
20035;DHT22;10178;48.034;9.800;2022-07-23T13:33:47;24.40;99.90
20035;DHT22;10178;48.034;9.800;2022-07-23T13:36:13;24.70;99.90
20035;DHT22;10178;48.034;9.800;2022-07-23T13:38:39;24.90;99.90
20035;DHT22;10178;48.034;9.800;2022-07-23T13:41:05;24.60;99.90
20035;DHT22;10178;48.034;9.800;2022-07-23T13:43:31;24.70;99.90
20035;DHT22;10178;48.034;9.800;2022-07-23T13:45:57;24.60;99.90
20035;DHT22;10178;48.034;9.800;2022-07-23T13:48:23;24.50;99.90
20035;DHT22;10178;48.034;9.800;2022-07-23T13:50:50;24.70;99.90
20035;DHT22;10178;48.034;9.800;2022-07-23T13:53:22;24.80;99.90
20035;DHT22;10178;48.034;9.800;2022-07-23T13:55:49;25.00;99.90
20035;DHT22;10178;48.034;9.800;2022-07-23T13:58:15;24.90;99.90
20035;DHT22;10178;48.034;9.800;2022-07-23T14:00:45;24.60;99.90
20035;DHT22;10178;48.034;9.800;2022-07-23T14:03:11;24.80;99.90
20035;DHT22;10178;48.034;9.800;2022-07-23T14:05:37;25.00;99.90
20035;DHT22;10178;48.034;9.800;2022-07-23T14:08:03;25.20;99.90
20035;DHT22;10178;48.034;9.800;2022-07-23T14:10:29;25.30;99.90
20035;DHT22;10178;48.034;9.800;2022-07-23T14:12:55;25.20;99.90
20035;DHT22;10178;48.034;9.800;2022-07-23T14:15:24;25.20;99.90
20035;DHT22;10178;48.034;9.800;2022-07-23T14:17:50;25.30;99.90
20035;DHT22;10178;48.034;9.800;2022-07-23T14:20:16;25.30;99.90
20035;DHT22;10178;48.034;9.800;2022-07-23T14:22:41;25.20;99.90
20035;DHT22;10178;48.034;9.800;2022-07-23T14:25:08;25.20;99.90
20035;DHT22;10178;48.034;9.800;2022-07-23T14:27:35;25.00;99.90
20035;DHT22;10178;48.034;9.800;2022-07-23T14:30:00;24.80;99.90
20035;DHT22;10178;48.034;9.800;2022-07-23T14:32:27;24.90;99.90
20035;DHT22;10178;48.034;9.800;2022-07-23T14:34:53;24.80;99.90
20035;DHT22;10178;48.034;9.800;2022-07-23T14:37:19;24.90;99.90
20035;DHT22;10178;48.034;9.800;2022-07-23T14:39:45;25.00;99.90
20035;DHT22;10178;48.034;9.800;2022-07-23T14:42:11;25.30;99.90
20035;DHT22;10178;48.034;9.800;2022-07-23T14:44:37;25.30;99.90
20035;DHT22;10178;48.034;9.800;2022-07-23T14:47:04;25.40;99.90
20035;DHT22;10178;48.034;9.800;2022-07-23T14:49:31;25.60;99.90
20035;DHT22;10178;48.034;9.800;2022-07-23T14:51:57;25.70;99.90
20035;DHT22;10178;48.034;9.800;2022-07-23T14:54:24;25.60;99.90
20035;DHT22;10178;48.034;9.800;2022-07-23T14:56:51;25.50;99.90
20035;DHT22;10178;48.034;9.800;2022-07-23T14:59:17;25.60;99.90
20035;DHT22;10178;48.034;9.800;2022-07-23T15:01:43;25.80;99.90
20035;DHT22;10178;48.034;9.800;2022-07-23T15:04:09;25.70;99.90
20035;DHT22;10178;48.034;9.800;2022-07-23T15:06:34;25.50;99.90
20035;DHT22;10178;48.034;9.800;2022-07-23T15:09:00;25.50;99.90
20035;DHT22;10178;48.034;9.800;2022-07-23T15:11:27;25.50;99.90
20035;DHT22;10178;48.034;9.800;2022-07-23T15:13:54;25.60;99.90
20035;DHT22;10178;48.034;9.800;2022-07-23T15:16:20;25.70;99.90
20035;DHT22;10178;48.034;9.800;2022-07-23T15:18:46;25.80;99.90
20035;DHT22;10178;48.034;9.800;2022-07-23T15:21:12;25.90;99.90
20035;DHT22;10178;48.034;9.800;2022-07-23T15:23:38;25.80;99.90
20035;DHT22;10178;48.034;9.800;2022-07-23T15:26:05;25.90;99.90
20035;DHT22;10178;48.034;9.800;2022-07-23T15:28:31;26.00;99.90
20035;DHT22;10178;48.034;9.800;2022-07-23T15:30:56;26.10;99.90
20035;DHT22;10178;48.034;9.800;2022-07-23T15:33:22;26.10;99.90
20035;DHT22;10178;48.034;9.800;2022-07-23T15:35:48;26.20;99.90
20035;DHT22;10178;48.034;9.800;2022-07-23T15:38:14;26.30;99.90
20035;DHT22;10178;48.034;9.800;2022-07-23T15:40:40;26.00;99.90
20035;DHT22;10178;48.034;9.800;2022-07-23T15:43:05;26.10;99.90
20035;DHT22;10178;48.034;9.800;2022-07-23T15:45:31;26.00;99.90
20035;DHT22;10178;48.034;9.800;2022-07-23T15:47:57;25.70;99.90
20035;DHT22;10178;48.034;9.800;2022-07-23T15:50:23;25.70;99.90
20035;DHT22;10178;48.034;9.800;2022-07-23T15:52:48;25.80;99.90
20035;DHT22;10178;48.034;9.800;2022-07-23T15:55:14;25.70;99.90
20035;DHT22;10178;48.034;9.800;2022-07-23T15:57:40;25.50;99.90
20035;DHT22;10178;48.034;9.800;2022-07-23T16:00:07;25.40;99.90
20035;DHT22;10178;48.034;9.800;2022-07-23T16:02:33;25.40;99.90
20035;DHT22;10178;48.034;9.800;2022-07-23T16:04:59;25.40;99.90
20035;DHT22;10178;48.034;9.800;2022-07-23T16:07:25;25.10;99.90
20035;DHT22;10178;48.034;9.800;2022-07-23T16:09:50;24.80;99.90
20035;DHT22;10178;48.034;9.800;2022-07-23T16:12:16;24.50;99.90
20035;DHT22;10178;48.034;9.800;2022-07-23T16:14:42;24.40;99.90
20035;DHT22;10178;48.034;9.800;2022-07-23T16:17:08;24.50;99.90